sensor_id;sensor_type;location;lat;lon;timestamp;pressure;altitude;pressure_sealevel;temperature;humidity
5138;BME280;53959;53.626;11.410;2023-07-29T00:01:49;100268.84;;;18.38;100.00
5138;BME280;53959;53.626;11.410;2023-07-29T00:04:15;100261.25;;;18.44;100.00
5138;BME280;53959;53.626;11.410;2023-07-29T00:06:40;100257.50;;;18.47;100.00
5138;BME280;53959;53.626;11.410;2023-07-29T00:09:05;100259.22;;;18.48;100.00
5138;BME280;53959;53.626;11.410;2023-07-29T00:11:31;100256.72;;;18.45;100.00
5138;BME280;53959;53.626;11.410;2023-07-29T00:14:01;100247.13;;;18.41;100.00
5138;BME280;53959;53.626;11.410;2023-07-29T00:16:27;100252.03;;;18.34;100.00
5138;BME280;53959;53.626;11.410;2023-07-29T00:18:52;100250.50;;;18.30;100.00
5138;BME280;53959;53.626;11.410;2023-07-29T00:21:17;100250.63;;;18.29;100.00
5138;BME280;53959;53.626;11.410;2023-07-29T00:23:43;100261.25;;;18.30;100.00
5138;BME280;53959;53.626;11.410;2023-07-29T00:26:08;100271.09;;;18.17;100.00
5138;BME280;53959;53.626;11.410;2023-07-29T00:28:33;100273.28;;;18.25;100.00
5138;BME280;53959;53.626;11.410;2023-07-29T00:30:59;100276.91;;;18.24;100.00
5138;BME280;53959;53.626;11.410;2023-07-29T00:33:25;100276.91;;;18.24;100.00
5138;BME280;53959;53.626;11.410;2023-07-29T00:35:52;100275.31;;;18.21;100.00
5138;BME280;53959;53.626;11.410;2023-07-29T00:38:17;100268.97;;;18.22;100.00
5138;BME280;53959;53.626;11.410;2023-07-29T00:40:43;100279.03;;;18.18;100.00
5138;BME280;53959;53.626;11.410;2023-07-29T00:43:08;100272.03;;;18.16;100.00
5138;BME280;53959;53.626;11.410;2023-07-29T00:45:35;100264.81;;;18.16;100.00
5138;BME280;53959;53.626;11.410;2023-07-29T00:48:02;100270.19;;;18.16;100.00
5138;BME280;53959;53.626;11.410;2023-07-29T00:50:30;100263.03;;;18.17;100.00
5138;BME280;53959;53.626;11.410;2023-07-29T00:53:02;100252.16;;;18.18;100.00
5138;BME280;53959;53.626;11.410;2023-07-29T00:55:28;100249.47;;;18.18;100.00
5138;BME280;53959;53.626;11.410;2023-07-29T00:57:54;100238.53;;;18.22;100.00
5138;BME280;53959;53.626;11.410;2023-07-29T01:00:21;100240.25;;;18.23;100.00
5138;BME280;53959;53.626;11.410;2023-07-29T01:02:46;100234.31;;;18.17;100.00
5138;BME280;53959;53.626;11.410;2023-07-29T01:05:13;100234.69;;;18.11;100.00
5138;BME280;53959;53.626;11.410;2023-07-29T01:07:47;100226.16;;;18.19;100.00
5138;BME280;53959;53.626;11.410;2023-07-29T01:15:58;100214.34;;;18.22;100.00
5138;BME280;53959;53.626;11.410;2023-07-29T01:18:29;100211.34;;;18.26;100.00
5138;BME280;53959;53.626;11.410;2023-07-29T01:20:59;100209.16;;;18.18;100.00
5138;BME280;53959;53.626;11.410;2023-07-29T01:23:32;100215.50;;;18.17;100.00
5138;BME280;53959;53.626;11.410;2023-07-29T01:25:58;100222.22;;;18.10;100.00
5138;BME280;53959;53.626;11.410;2023-07-29T01:28:24;100218.19;;;18.17;100.00
5138;BME280;53959;53.626;11.410;2023-07-29T01:30:53;100219.91;;;18.18;100.00
5138;BME280;53959;53.626;11.410;2023-07-29T01:33:44;100214.22;;;18.23;100.00
5138;BME280;53959;53.626;11.410;2023-07-29T01:36:18;100208.00;;;18.23;100.00
5138;BME280;53959;53.626;11.410;2023-07-29T01:38:47;100211.75;;;18.20;100.00
5138;BME280;53959;53.626;11.410;2023-07-29T01:41:13;100210.88;;;18.19;100.00
5138;BME280;53959;53.626;11.410;2023-07-29T01:43:40;100212.16;;;18.14;100.00
5138;BME280;53959;53.626;11.410;2023-07-29T01:46:10;100204.16;;;18.12;100.00
5138;BME280;53959;53.626;11.410;2023-07-29T01:48:37;100214.25;;;18.09;100.00
5138;BME280;53959;53.626;11.410;2023-07-29T01:51:03;100219.19;;;18.02;100.00
5138;BME280;53959;53.626;11.410;2023-07-29T01:53:29;100223.78;;;18.00;100.00
5138;BME280;53959;53.626;11.410;2023-07-29T01:55:54;100233.09;;;17.94;100.00
5138;BME280;53959;53.626;11.410;2023-07-29T01:58:19;100233.09;;;17.94;100.00
5138;BME280;53959;53.626;11.410;2023-07-29T02:00:46;100233.47;;;17.88;100.00
5138;BME280;53959;53.626;11.410;2023-07-29T02:03:12;100234.72;;;17.97;100.00
5138;BME280;53959;53.626;11.410;2023-07-29T02:05:38;100228.47;;;17.96;100.00
5138;BME280;53959;53.626;11.410;2023-07-29T02:08:03;100230.13;;;17.99;100.00
5138;BME280;53959;53.626;11.410;2023-07-29T02:10:29;100222.13;;;17.98;100.00
5138;BME280;53959;53.626;11.410;2023-07-29T02:12:54;100216.00;;;17.95;100.00
5138;BME280;53959;53.626;11.410;2023-07-29T02:15:19;100231.28;;;17.95;100.00
5138;BME280;53959;53.626;11.410;2023-07-29T02:17:45;100228.09;;;17.88;100.00
5138;BME280;53959;53.626;11.410;2023-07-29T02:20:10;100226.28;;;17.89;100.00
5138;BME280;53959;53.626;11.410;2023-07-29T02:22:36;100227.63;;;17.82;100.00
5138;BME280;53959;53.626;11.410;2023-07-29T02:25:02;100229.63;;;17.78;100.00
5138;BME280;53959;53.626;11.410;2023-07-29T02:27:28;100220.72;;;17.78;100.00
5138;BME280;53959;53.626;11.410;2023-07-29T02:29:54;100225.50;;;17.72;100.00
5138;BME280;53959;53.626;11.410;2023-07-29T02:32:20;100226.34;;;17.73;100.00
5138;BME280;53959;53.626;11.410;2023-07-29T02:34:45;100222.41;;;17.64;100.00
5138;BME280;53959;53.626;11.410;2023-07-29T02:37:10;100219.34;;;17.70;100.00
5138;BME280;53959;53.626;11.410;2023-07-29T02:39:36;100213.09;;;17.70;100.00
5138;BME280;53959;53.626;11.410;2023-07-29T02:42:02;100208.78;;;17.67;100.00
5138;BME280;53959;53.626;11.410;2023-07-29T02:44:28;100201.88;;;17.63;100.00
5138;BME280;53959;53.626;11.410;2023-07-29T02:46:53;100198.25;;;17.64;100.00
5138;BME280;53959;53.626;11.410;2023-07-29T02:49:21;100196.25;;;17.68;100.00
5138;BME280;53959;53.626;11.410;2023-07-29T02:51:46;100193.94;;;17.62;100.00
5138;BME280;53959;53.626;11.410;2023-07-29T02:54:12;100191.34;;;17.60;100.00
5138;BME280;53959;53.626;11.410;2023-07-29T02:56:37;100190.69;;;17.57;100.00
5138;BME280;53959;53.626;11.410;2023-07-29T02:59:04;100190.94;;;17.52;100.00
5138;BME280;53959;53.626;11.410;2023-07-29T03:01:30;100189.41;;;17.48;100.00
5138;BME280;53959;53.626;11.410;2023-07-29T03:03:55;100181.34;;;17.48;100.00
5138;BME280;53959;53.626;11.410;2023-07-29T03:06:21;100184.03;;;17.48;100.00
5138;BME280;53959;53.626;11.410;2023-07-29T03:08:46;100179.31;;;17.37;100.00
5138;BME280;53959;53.626;11.410;2023-07-29T03:11:13;100180.59;;;17.46;100.00
5138;BME280;53959;53.626;11.410;2023-07-29T03:13:40;100173.47;;;17.45;100.00
5138;BME280;53959;53.626;11.410;2023-07-29T03:18:31;100159.00;;;17.47;100.00
5138;BME280;53959;53.626;11.410;2023-07-29T03:20:56;100160.94;;;17.45;100.00
5138;BME280;53959;53.626;11.410;2023-07-29T03:23:21;100166.56;;;17.41;100.00
5138;BME280;53959;53.626;11.410;2023-07-29T03:25:50;100173.19;;;17.35;100.00
5138;BME280;53959;53.626;11.410;2023-07-29T03:28:23;100167.84;;;17.35;100.00
5138;BME280;53959;53.626;11.410;2023-07-29T03:30:48;100173.28;;;17.34;100.00
5138;BME280;53959;53.626;11.410;2023-07-29T03:33:13;100179.06;;;17.42;100.00
5138;BME280;53959;53.626;11.410;2023-07-29T03:35:39;100178.66;;;17.34;100.00
5138;BME280;53959;53.626;11.410;2023-07-29T03:38:04;100174.63;;;17.41;100.00
5138;BME280;53959;53.626;11.410;2023-07-29T03:40:29;100169.88;;;17.46;100.00
5138;BME280;53959;53.626;11.410;2023-07-29T03:42:55;100176.94;;;17.47;100.00
5138;BME280;53959;53.626;11.410;2023-07-29T03:45:20;100170.63;;;17.48;100.00
5138;BME280;53959;53.626;11.410;2023-07-29T03:47:45;100172.38;;;17.49;100.00
5138;BME280;53959;53.626;11.410;2023-07-29T03:50:11;100180.31;;;17.51;100.00
5138;BME280;53959;53.626;11.410;2023-07-29T03:52:36;100180.41;;;17.49;100.00
5138;BME280;53959;53.626;11.410;2023-07-29T03:55:02;100187.56;;;17.48;100.00
5138;BME280;53959;53.626;11.410;2023-07-29T03:57:27;100186.91;;;17.45;100.00
5138;BME280;53959;53.626;11.410;2023-07-29T03:59:54;100188.84;;;17.43;100.00
5138;BME280;53959;53.626;11.410;2023-07-29T04:02:19;100186.53;;;17.51;100.00
5138;BME280;53959;53.626;11.410;2023-07-29T04:04:45;100182.13;;;17.50;100.00
5138;BME280;53959;53.626;11.410;2023-07-29T04:07:13;100188.38;;;17.51;100.00
5138;BME280;53959;53.626;11.410;2023-07-29T04:09:39;100186.34;;;17.54;100.00
5138;BME280;53959;53.626;11.410;2023-07-29T04:12:04;100186.16;;;17.57;100.00
5138;BME280;53959;53.626;11.410;2023-07-29T04:14:30;100200.34;;;17.59;100.00
5138;BME280;53959;53.626;11.410;2023-07-29T04:16:55;100197.56;;;17.61;100.00
5138;BME280;53959;53.626;11.410;2023-07-29T04:19:21;100195.56;;;17.64;100.00
5138;BME280;53959;53.626;11.410;2023-07-29T04:21:47;100192.28;;;17.73;100.00
5138;BME280;53959;53.626;11.410;2023-07-29T04:24:13;100185.38;;;17.69;100.00
5138;BME280;53959;53.626;11.410;2023-07-29T04:26:38;100197.19;;;17.67;100.00
5138;BME280;53959;53.626;11.410;2023-07-29T04:29:04;100204.06;;;17.71;100.00
5138;BME280;53959;53.626;11.410;2023-07-29T04:31:30;100193.84;;;17.78;100.00
5138;BME280;53959;53.626;11.410;2023-07-29T04:33:55;100200.09;;;17.78;100.00
5138;BME280;53959;53.626;11.410;2023-07-29T04:36:20;100196.81;;;17.73;100.00
5138;BME280;53959;53.626;11.410;2023-07-29T04:38:46;100183.97;;;17.78;100.00
5138;BME280;53959;53.626;11.410;2023-07-29T04:41:11;100185.50;;;17.82;100.00
5138;BME280;53959;53.626;11.410;2023-07-29T04:43:36;100179.94;;;17.85;100.00
5138;BME280;53959;53.626;11.410;2023-07-29T04:46:02;100162.97;;;17.85;100.00
5138;BME280;53959;53.626;11.410;2023-07-29T04:48:27;100162.41;;;17.80;100.00
5138;BME280;53959;53.626;11.410;2023-07-29T04:50:53;100163.16;;;17.82;100.00
5138;BME280;53959;53.626;11.410;2023-07-29T04:53:18;100162.09;;;17.84;100.00
5138;BME280;53959;53.626;11.410;2023-07-29T04:55:45;100161.06;;;17.87;100.00
5138;BME280;53959;53.626;11.410;2023-07-29T04:58:11;100161.41;;;17.95;100.00
5138;BME280;53959;53.626;11.410;2023-07-29T05:00:36;100153.59;;;18.05;100.00
5138;BME280;53959;53.626;11.410;2023-07-29T05:03:02;100149.00;;;18.07;100.00
5138;BME280;53959;53.626;11.410;2023-07-29T05:05:28;100150.88;;;18.19;100.00
5138;BME280;53959;53.626;11.410;2023-07-29T05:07:53;100144.09;;;18.40;100.00
5138;BME280;53959;53.626;11.410;2023-07-29T05:10:18;100142.81;;;18.46;100.00
5138;BME280;53959;53.626;11.410;2023-07-29T05:12:44;100135.31;;;18.51;100.00
5138;BME280;53959;53.626;11.410;2023-07-29T05:15:10;100122.09;;;18.48;100.00
5138;BME280;53959;53.626;11.410;2023-07-29T05:17:35;100127.66;;;18.45;100.00
5138;BME280;53959;53.626;11.410;2023-07-29T05:20:00;100132.06;;;18.46;100.00
5138;BME280;53959;53.626;11.410;2023-07-29T05:22:26;100131.25;;;18.58;100.00
5138;BME280;53959;53.626;11.410;2023-07-29T05:24:51;100132.19;;;18.57;100.00
5138;BME280;53959;53.626;11.410;2023-07-29T05:27:17;100133.53;;;18.64;100.00
5138;BME280;53959;53.626;11.410;2023-07-29T05:29:42;100128.91;;;18.66;100.00
5138;BME280;53959;53.626;11.410;2023-07-29T05:32:07;100139.75;;;18.65;100.00
5138;BME280;53959;53.626;11.410;2023-07-29T05:34:33;100135.25;;;18.65;100.00
5138;BME280;53959;53.626;11.410;2023-07-29T05:36:58;100132.00;;;18.60;100.00
5138;BME280;53959;53.626;11.410;2023-07-29T05:39:23;100136.41;;;18.61;100.00
5138;BME280;53959;53.626;11.410;2023-07-29T05:41:49;100133.31;;;18.67;100.00
5138;BME280;53959;53.626;11.410;2023-07-29T05:44:15;100133.53;;;18.64;100.00
5138;BME280;53959;53.626;11.410;2023-07-29T05:46:40;100135.13;;;18.81;100.00
5138;BME280;53959;53.626;11.410;2023-07-29T05:49:06;100134.53;;;18.76;100.00
5138;BME280;53959;53.626;11.410;2023-07-29T05:51:31;100128.31;;;18.76;100.00
5138;BME280;53959;53.626;11.410;2023-07-29T05:53:57;100126.97;;;19.08;100.00
5138;BME280;53959;53.626;11.410;2023-07-29T05:56:22;100121.13;;;19.02;100.00
5138;BME280;53959;53.626;11.410;2023-07-29T05:58:47;100123.41;;;19.21;100.00
5138;BME280;53959;53.626;11.410;2023-07-29T06:01:13;100130.09;;;19.15;100.00
5138;BME280;53959;53.626;11.410;2023-07-29T06:03:38;100134.50;;;19.03;100.00
5138;BME280;53959;53.626;11.410;2023-07-29T06:06:03;100130.94;;;19.15;100.00
5138;BME280;53959;53.626;11.410;2023-07-29T06:08:29;100128.03;;;19.19;100.00
5138;BME280;53959;53.626;11.410;2023-07-29T06:10:54;100134.63;;;19.14;100.00
5138;BME280;53959;53.626;11.410;2023-07-29T06:13:20;100130.19;;;19.01;100.00
5138;BME280;53959;53.626;11.410;2023-07-29T06:15:45;100123.50;;;18.93;100.00
5138;BME280;53959;53.626;11.410;2023-07-29T06:18:10;100116.59;;;18.89;100.00
5138;BME280;53959;53.626;11.410;2023-07-29T06:20:37;100114.13;;;18.99;100.00
5138;BME280;53959;53.626;11.410;2023-07-29T06:23:02;100117.59;;;18.88;100.00
5138;BME280;53959;53.626;11.410;2023-07-29T06:25:28;100110.50;;;19.00;100.00
5138;BME280;53959;53.626;11.410;2023-07-29T06:27:53;100120.16;;;19.03;100.00
5138;BME280;53959;53.626;11.410;2023-07-29T06:30:18;100121.78;;;18.92;100.00
5138;BME280;53959;53.626;11.410;2023-07-29T06:32:44;100123.09;;;19.00;100.00
5138;BME280;53959;53.626;11.410;2023-07-29T06:35:09;100117.78;;;18.98;100.00
5138;BME280;53959;53.626;11.410;2023-07-29T06:37:34;100124.47;;;19.05;100.00
5138;BME280;53959;53.626;11.410;2023-07-29T06:40:00;100115.41;;;19.06;100.00
5138;BME280;53959;53.626;11.410;2023-07-29T06:42:25;100123.41;;;19.21;100.00
5138;BME280;53959;53.626;11.410;2023-07-29T06:44:50;100125.56;;;19.28;100.00
5138;BME280;53959;53.626;11.410;2023-07-29T06:47:15;100123.16;;;19.36;100.00
5138;BME280;53959;53.626;11.410;2023-07-29T06:49:41;100123.25;;;19.48;100.00
5138;BME280;53959;53.626;11.410;2023-07-29T06:52:06;100125.22;;;19.46;100.00
5138;BME280;53959;53.626;11.410;2023-07-29T06:54:32;100120.38;;;19.38;100.00
5138;BME280;53959;53.626;11.410;2023-07-29T06:56:58;100124.88;;;19.50;100.00
5138;BME280;53959;53.626;11.410;2023-07-29T06:59:23;100122.97;;;19.39;100.00
5138;BME280;53959;53.626;11.410;2023-07-29T07:01:50;100123.59;;;19.56;100.00
5138;BME280;53959;53.626;11.410;2023-07-29T07:04:15;100112.19;;;19.39;100.00
5138;BME280;53959;53.626;11.410;2023-07-29T07:06:40;100108.84;;;19.36;100.00
5138;BME280;53959;53.626;11.410;2023-07-29T07:09:06;100117.34;;;19.55;100.00
5138;BME280;53959;53.626;11.410;2023-07-29T07:11:31;100115.88;;;19.64;100.00
5138;BME280;53959;53.626;11.410;2023-07-29T07:13:56;100127.88;;;19.58;100.00
5138;BME280;53959;53.626;11.410;2023-07-29T07:16:22;100123.28;;;19.60;100.00
5138;BME280;53959;53.626;11.410;2023-07-29T07:18:47;100125.88;;;19.49;100.00
5138;BME280;53959;53.626;11.410;2023-07-29T07:21:12;100124.47;;;19.56;100.00
5138;BME280;53959;53.626;11.410;2023-07-29T07:23:39;100125.66;;;19.52;100.00
5138;BME280;53959;53.626;11.410;2023-07-29T07:26:04;100125.09;;;19.73;100.00
5138;BME280;53959;53.626;11.410;2023-07-29T07:28:30;100125.19;;;19.84;100.00
5138;BME280;53959;53.626;11.410;2023-07-29T07:30:55;100123.13;;;19.87;100.00
5138;BME280;53959;53.626;11.410;2023-07-29T07:33:21;100118.53;;;20.01;100.00
5138;BME280;53959;53.626;11.410;2023-07-29T07:35:47;100115.03;;;20.24;100.00
5138;BME280;53959;53.626;11.410;2023-07-29T07:38:12;100105.69;;;20.17;100.00
5138;BME280;53959;53.626;11.410;2023-07-29T07:40:37;100099.22;;;20.31;100.00
5138;BME280;53959;53.626;11.410;2023-07-29T07:43:03;100099.97;;;20.33;100.00
5138;BME280;53959;53.626;11.410;2023-07-29T07:45:28;100090.53;;;20.27;100.00
5138;BME280;53959;53.626;11.410;2023-07-29T07:47:53;100096.81;;;20.15;100.00
5138;BME280;53959;53.626;11.410;2023-07-29T07:50:19;100095.09;;;20.38;100.00
5138;BME280;53959;53.626;11.410;2023-07-29T07:52:45;100101.53;;;20.48;100.00
5138;BME280;53959;53.626;11.410;2023-07-29T07:55:10;100101.91;;;21.48;100.00
5138;BME280;53959;53.626;11.410;2023-07-29T07:57:35;100090.19;;;21.81;100.00
5138;BME280;53959;53.626;11.410;2023-07-29T08:00:01;100075.75;;;21.71;100.00
5138;BME280;53959;53.626;11.410;2023-07-29T08:02:26;100064.59;;;21.96;100.00
5138;BME280;53959;53.626;11.410;2023-07-29T08:04:51;100073.91;;;21.49;100.00
5138;BME280;53959;53.626;11.410;2023-07-29T08:07:17;100074.38;;;21.76;100.00
5138;BME280;53959;53.626;11.410;2023-07-29T08:09:42;100070.41;;;21.92;100.00
5138;BME280;53959;53.626;11.410;2023-07-29T08:12:08;100069.09;;;21.75;100.00
5138;BME280;53959;53.626;11.410;2023-07-29T08:14:33;100082.72;;;21.51;100.00
5138;BME280;53959;53.626;11.410;2023-07-29T08:16:58;100079.28;;;22.58;100.00
5138;BME280;53959;53.626;11.410;2023-07-29T08:19:24;100070.88;;;22.40;100.00
5138;BME280;53959;53.626;11.410;2023-07-29T08:21:49;100080.53;;;22.22;100.00
5138;BME280;53959;53.626;11.410;2023-07-29T08:24:14;100078.69;;;22.11;100.00
5138;BME280;53959;53.626;11.410;2023-07-29T08:26:40;100072.34;;;22.01;100.00
5138;BME280;53959;53.626;11.410;2023-07-29T08:29:05;100087.25;;;21.84;100.00
5138;BME280;53959;53.626;11.410;2023-07-29T08:31:30;100085.91;;;21.90;100.00
5138;BME280;53959;53.626;11.410;2023-07-29T08:33:59;100081.13;;;21.82;100.00
5138;BME280;53959;53.626;11.410;2023-07-29T08:36:24;100083.69;;;21.83;100.00
5138;BME280;53959;53.626;11.410;2023-07-29T08:38:49;100084.81;;;21.36;100.00
5138;BME280;53959;53.626;11.410;2023-07-29T08:41:37;100092.59;;;21.52;100.00
5138;BME280;53959;53.626;11.410;2023-07-29T08:44:26;100075.88;;;21.47;100.00
5138;BME280;53959;53.626;11.410;2023-07-29T08:46:56;100077.47;;;21.49;100.00
5138;BME280;53959;53.626;11.410;2023-07-29T08:49:23;100072.06;;;21.61;100.00
5138;BME280;53959;53.626;11.410;2023-07-29T08:51:50;100068.28;;;21.52;100.00
5138;BME280;53959;53.626;11.410;2023-07-29T08:54:18;100071.06;;;21.50;100.00
5138;BME280;53959;53.626;11.410;2023-07-29T08:56:44;100076.25;;;21.42;100.00
5138;BME280;53959;53.626;11.410;2023-07-29T08:59:11;100066.41;;;21.52;100.00
5138;BME280;53959;53.626;11.410;2023-07-29T09:01:41;100074.53;;;21.41;100.00
5138;BME280;53959;53.626;11.410;2023-07-29T09:04:07;100071.06;;;21.62;100.00
5138;BME280;53959;53.626;11.410;2023-07-29T09:06:32;100065.63;;;21.84;100.00
5138;BME280;53959;53.626;11.410;2023-07-29T09:09:01;100070.94;;;22.29;100.00
5138;BME280;53959;53.626;11.410;2023-07-29T09:11:27;100076.63;;;22.03;100.00
5138;BME280;53959;53.626;11.410;2023-07-29T09:13:53;100066.63;;;21.72;100.00
5138;BME280;53959;53.626;11.410;2023-07-29T09:16:20;100062.00;;;21.40;100.00
5138;BME280;53959;53.626;11.410;2023-07-29T09:18:47;100065.75;;;21.82;100.00
5138;BME280;53959;53.626;11.410;2023-07-29T09:21:15;100047.22;;;22.53;100.00
5138;BME280;53959;53.626;11.410;2023-07-29T09:23:41;100054.13;;;22.67;100.00
5138;BME280;53959;53.626;11.410;2023-07-29T09:26:07;100054.69;;;22.29;100.00
5138;BME280;53959;53.626;11.410;2023-07-29T09:28:38;100046.19;;;22.01;100.00
5138;BME280;53959;53.626;11.410;2023-07-29T09:31:04;100051.31;;;22.16;100.00
5138;BME280;53959;53.626;11.410;2023-07-29T09:33:33;100036.63;;;22.29;100.00
5138;BME280;53959;53.626;11.410;2023-07-29T09:36:02;100042.31;;;22.47;100.00
5138;BME280;53959;53.626;11.410;2023-07-29T09:38:28;100028.94;;;22.14;100.00
5138;BME280;53959;53.626;11.410;2023-07-29T09:40:57;100029.16;;;22.11;100.00
5138;BME280;53959;53.626;11.410;2023-07-29T09:43:29;100032.25;;;22.49;100.00
5138;BME280;53959;53.626;11.410;2023-07-29T09:45:59;100026.22;;;22.46;100.00
5138;BME280;53959;53.626;11.410;2023-07-29T09:48:25;100033.81;;;22.73;100.00
5138;BME280;53959;53.626;11.410;2023-07-29T09:50:50;100030.44;;;22.60;100.00
5138;BME280;53959;53.626;11.410;2023-07-29T09:53:16;100026.56;;;22.73;100.00
5138;BME280;53959;53.626;11.410;2023-07-29T09:55:46;100029.28;;;22.20;100.00
5138;BME280;53959;53.626;11.410;2023-07-29T09:58:13;100023.41;;;22.15;100.00
5138;BME280;53959;53.626;11.410;2023-07-29T10:00:39;100023.75;;;22.22;100.00
5138;BME280;53959;53.626;11.410;2023-07-29T10:03:05;100026.44;;;22.22;100.00
5138;BME280;53959;53.626;11.410;2023-07-29T10:05:32;100035.09;;;22.04;100.00
5138;BME280;53959;53.626;11.410;2023-07-29T10:08:00;100032.91;;;21.98;100.00
5138;BME280;53959;53.626;11.410;2023-07-29T10:10:27;100026.25;;;22.14;100.00
5138;BME280;53959;53.626;11.410;2023-07-29T10:12:54;100029.09;;;22.01;100.00
5138;BME280;53959;53.626;11.410;2023-07-29T10:15:20;100025.47;;;21.79;100.00
5138;BME280;53959;53.626;11.410;2023-07-29T10:17:46;100028.00;;;21.92;100.00
5138;BME280;53959;53.626;11.410;2023-07-29T10:20:12;100031.25;;;22.18;100.00
5138;BME280;53959;53.626;11.410;2023-07-29T10:22:41;100020.81;;;22.67;100.00
5138;BME280;53959;53.626;11.410;2023-07-29T10:25:17;100021.66;;;22.88;100.00
5138;BME280;53959;53.626;11.410;2023-07-29T10:27:47;100015.25;;;22.89;100.00
5138;BME280;53959;53.626;11.410;2023-07-29T10:30:13;100013.09;;;22.62;100.00
5138;BME280;53959;53.626;11.410;2023-07-29T10:32:44;100017.09;;;22.68;100.00
5138;BME280;53959;53.626;11.410;2023-07-29T10:35:11;100017.44;;;22.53;100.00
5138;BME280;53959;53.626;11.410;2023-07-29T10:37:36;100018.56;;;22.72;100.00
5138;BME280;53959;53.626;11.410;2023-07-29T10:40:06;100016.47;;;22.22;100.00
5138;BME280;53959;53.626;11.410;2023-07-29T10:42:32;100006.81;;;22.20;100.00
5138;BME280;53959;53.626;11.410;2023-07-29T10:44:57;100007.41;;;22.12;100.00
5138;BME280;53959;53.626;11.410;2023-07-29T10:47:27;100014.53;;;21.70;100.00
5138;BME280;53959;53.626;11.410;2023-07-29T10:49:57;100012.78;;;21.91;100.00
5138;BME280;53959;53.626;11.410;2023-07-29T10:52:40;99994.59;;;22.25;100.00
5138;BME280;53959;53.626;11.410;2023-07-29T10:55:27;99999.88;;;22.48;100.00
5138;BME280;53959;53.626;11.410;2023-07-29T10:58:04;100001.72;;;21.94;100.00
5138;BME280;53959;53.626;11.410;2023-07-29T11:00:31;100018.97;;;20.70;100.00
5138;BME280;53959;53.626;11.410;2023-07-29T11:03:03;56826.63;;;-144.18;100.00
5138;BME280;53959;53.626;11.410;2023-07-29T11:05:52;56826.63;;;-144.18;100.00
5138;BME280;53959;53.626;11.410;2023-07-29T11:10:57;56826.63;;;-144.18;100.00
5138;BME280;53959;53.626;11.410;2023-07-29T11:13:22;56826.63;;;-144.18;100.00
5138;BME280;53959;53.626;11.410;2023-07-29T11:15:49;56826.63;;;-144.18;100.00
5138;BME280;53959;53.626;11.410;2023-07-29T11:18:15;56826.63;;;-144.18;100.00
5138;BME280;53959;53.626;11.410;2023-07-29T11:20:41;56826.63;;;-144.18;100.00
5138;BME280;53959;53.626;11.410;2023-07-29T11:23:07;56826.63;;;-144.18;100.00
5138;BME280;53959;53.626;11.410;2023-07-29T11:25:32;56826.63;;;-144.18;100.00
5138;BME280;53959;53.626;11.410;2023-07-29T11:27:59;56826.63;;;-144.18;100.00
5138;BME280;53959;53.626;11.410;2023-07-29T11:30:25;56826.63;;;-144.18;100.00
5138;BME280;53959;53.626;11.410;2023-07-29T11:32:55;56826.63;;;-144.18;100.00
5138;BME280;53959;53.626;11.410;2023-07-29T11:35:21;56826.63;;;-144.18;100.00
5138;BME280;53959;53.626;11.410;2023-07-29T11:37:48;56826.63;;;-144.18;100.00
5138;BME280;53959;53.626;11.410;2023-07-29T11:40:18;56826.63;;;-144.18;100.00
5138;BME280;53959;53.626;11.410;2023-07-29T11:42:45;56826.63;;;-144.18;100.00
5138;BME280;53959;53.626;11.410;2023-07-29T11:45:14;56826.63;;;-144.18;100.00
5138;BME280;53959;53.626;11.410;2023-07-29T11:47:40;56826.63;;;-144.18;100.00
5138;BME280;53959;53.626;11.410;2023-07-29T11:50:11;56826.63;;;-144.18;100.00
5138;BME280;53959;53.626;11.410;2023-07-29T11:52:46;56826.63;;;-144.18;100.00
5138;BME280;53959;53.626;11.410;2023-07-29T11:55:13;56826.63;;;-144.18;100.00
5138;BME280;53959;53.626;11.410;2023-07-29T11:57:39;56826.63;;;-144.18;100.00
5138;BME280;53959;53.626;11.410;2023-07-29T12:00:07;56826.63;;;-144.18;100.00
5138;BME280;53959;53.626;11.410;2023-07-29T12:02:36;56826.63;;;-144.18;100.00
5138;BME280;53959;53.626;11.410;2023-07-29T12:05:04;56826.63;;;-144.18;100.00
5138;BME280;53959;53.626;11.410;2023-07-29T12:07:30;56826.63;;;-144.18;100.00
5138;BME280;53959;53.626;11.410;2023-07-29T12:09:55;56826.63;;;-144.18;100.00
5138;BME280;53959;53.626;11.410;2023-07-29T12:12:22;56826.63;;;-144.18;100.00
5138;BME280;53959;53.626;11.410;2023-07-29T12:14:48;56826.63;;;-144.18;100.00
5138;BME280;53959;53.626;11.410;2023-07-29T12:17:14;56826.63;;;-144.18;100.00
5138;BME280;53959;53.626;11.410;2023-07-29T12:19:41;56826.63;;;-144.18;100.00
5138;BME280;53959;53.626;11.410;2023-07-29T12:22:09;56826.63;;;-144.18;100.00
5138;BME280;53959;53.626;11.410;2023-07-29T12:24:37;56826.63;;;-144.18;100.00
5138;BME280;53959;53.626;11.410;2023-07-29T12:27:03;56826.63;;;-144.18;100.00
5138;BME280;53959;53.626;11.410;2023-07-29T12:29:28;56826.63;;;-144.18;100.00
5138;BME280;53959;53.626;11.410;2023-07-29T12:32:01;56826.63;;;-144.18;100.00
5138;BME280;53959;53.626;11.410;2023-07-29T12:34:28;56826.63;;;-144.18;100.00
5138;BME280;53959;53.626;11.410;2023-07-29T12:36:55;56826.63;;;-144.18;100.00
5138;BME280;53959;53.626;11.410;2023-07-29T12:39:26;56826.63;;;-144.18;100.00
5138;BME280;53959;53.626;11.410;2023-07-29T12:41:53;56826.63;;;-144.18;100.00
5138;BME280;53959;53.626;11.410;2023-07-29T12:44:19;56826.63;;;-144.18;100.00
5138;BME280;53959;53.626;11.410;2023-07-29T12:46:45;56826.63;;;-144.18;100.00